createdAt,value
2023-03-29T00:00:47.701Z,1007.98
2023-03-29T00:01:50.383Z,1007.94
2023-03-29T00:02:49.819Z,1007.92
2023-03-29T00:03:43.105Z,1007.94
2023-03-29T00:04:43.082Z,1007.88
2023-03-29T00:05:43.057Z,1007.84
2023-03-29T00:06:43.062Z,1007.84
2023-03-29T00:07:43.058Z,1007.77
2023-03-29T00:08:43.075Z,1007.72
2023-03-29T00:09:43.058Z,1007.69
2023-03-29T00:10:43.168Z,1007.73
2023-03-29T00:11:43.045Z,1007.73
2023-03-29T00:12:43.049Z,1007.7
2023-03-29T00:13:43.106Z,1007.71
2023-03-29T00:14:43.050Z,1007.69
2023-03-29T00:15:43.055Z,1007.7
2023-03-29T00:16:43.086Z,1007.7
2023-03-29T00:17:43.121Z,1007.68
2023-03-29T00:18:43.060Z,1007.7
2023-03-29T00:19:43.051Z,1007.67
2023-03-29T00:20:44.112Z,1007.71
2023-03-29T00:21:47.841Z,1007.67
2023-03-29T00:22:50.559Z,1007.6
2023-03-29T00:23:49.888Z,1007.53
2023-03-29T00:24:43.051Z,1007.5
2023-03-29T00:25:43.051Z,1007.56
2023-03-29T00:26:43.057Z,1007.51
2023-03-29T00:27:43.079Z,1007.48
2023-03-29T00:28:43.077Z,1007.5
2023-03-29T00:29:43.059Z,1007.47
2023-03-29T00:30:43.061Z,1007.42
2023-03-29T00:31:43.068Z,1007.41
2023-03-29T00:32:43.179Z,1007.34
2023-03-29T00:33:43.063Z,1007.3
2023-03-29T00:34:43.056Z,1007.28
2023-03-29T00:35:43.197Z,1007.26
2023-03-29T00:36:43.056Z,1007.21
2023-03-29T00:37:43.048Z,1007.19
2023-03-29T00:38:43.127Z,1007.19
2023-03-29T00:39:43.050Z,1007.15
2023-03-29T00:40:43.051Z,1007.1
2023-03-29T00:41:44.178Z,1007.12
2023-03-29T00:42:47.710Z,1007.06
2023-03-29T00:43:50.667Z,1007.07
2023-03-29T00:44:50.034Z,1007.06
2023-03-29T00:45:43.209Z,1007.03
2023-03-29T00:46:43.512Z,1006.99
2023-03-29T00:47:43.163Z,1006.97
2023-03-29T00:48:43.062Z,1006.92
2023-03-29T00:49:43.055Z,1006.97
2023-03-29T00:50:43.053Z,1006.9
2023-03-29T00:51:43.052Z,1006.85
2023-03-29T00:52:43.078Z,1006.86
2023-03-29T00:53:43.052Z,1006.84
2023-03-29T00:54:43.052Z,1006.85
2023-03-29T00:55:43.061Z,1006.85
2023-03-29T00:56:43.076Z,1006.86
2023-03-29T00:57:43.068Z,1006.86
2023-03-29T00:58:43.056Z,1006.86
2023-03-29T00:59:43.046Z,1006.81
2023-03-29T01:00:43.139Z,1006.79
2023-03-29T01:01:43.143Z,1006.82
2023-03-29T01:02:43.119Z,1006.83
2023-03-29T01:03:44.581Z,1006.74
2023-03-29T01:04:47.810Z,1006.81
2023-03-29T01:05:49.224Z,1006.67
2023-03-29T01:06:50.226Z,1006.66
2023-03-29T01:07:43.286Z,1006.7
2023-03-29T01:08:43.073Z,1006.65
2023-03-29T01:09:43.065Z,1006.71
2023-03-29T01:10:43.055Z,1006.69
2023-03-29T01:11:43.067Z,1006.73
2023-03-29T01:12:43.096Z,1006.67
2023-03-29T01:13:43.056Z,1006.67
2023-03-29T01:14:43.061Z,1006.64
2023-03-29T01:15:43.055Z,1006.65
2023-03-29T01:16:43.095Z,1006.65
2023-03-29T01:17:43.084Z,1006.61
2023-03-29T01:18:43.057Z,1006.55
2023-03-29T01:19:43.060Z,1006.59
2023-03-29T01:20:43.068Z,1006.55
2023-03-29T01:21:43.301Z,1006.52
2023-03-29T01:22:43.215Z,1006.5
2023-03-29T01:23:43.368Z,1006.5
2023-03-29T01:24:44.611Z,1006.48
2023-03-29T01:25:47.954Z,1006.44
2023-03-29T01:26:49.318Z,1006.48
2023-03-29T01:28:43.060Z,1006.5
2023-03-29T01:29:43.061Z,1006.45
2023-03-29T01:30:43.051Z,1006.48
2023-03-29T01:31:43.066Z,1006.48
2023-03-29T01:32:43.089Z,1006.46
2023-03-29T01:33:43.061Z,1006.47
2023-03-29T01:34:43.075Z,1006.42
2023-03-29T01:35:43.078Z,1006.38
2023-03-29T01:36:43.091Z,1006.37
2023-03-29T01:37:43.080Z,1006.34
2023-03-29T01:38:43.179Z,1006.37
2023-03-29T01:39:43.198Z,1006.34
2023-03-29T01:40:43.175Z,1006.36
2023-03-29T01:41:43.056Z,1006.28
2023-03-29T01:42:43.288Z,1006.29
2023-03-29T01:43:43.059Z,1006.22
2023-03-29T01:44:43.242Z,1006.22
2023-03-29T01:45:44.686Z,1006.19
2023-03-29T01:46:48.025Z,1006.18
2023-03-29T01:47:50.396Z,1006.13
2023-03-29T01:49:43.062Z,1006.13
2023-03-29T01:50:43.071Z,1006.06
2023-03-29T01:51:43.061Z,1006.12
2023-03-29T01:52:43.078Z,1006.09
2023-03-29T01:53:43.053Z,1006.1
2023-03-29T01:54:43.057Z,1006.1
2023-03-29T01:55:43.073Z,1006.04
2023-03-29T01:56:43.067Z,1006.05
2023-03-29T01:57:43.072Z,1006.01
2023-03-29T01:58:43.066Z,1006
2023-03-29T01:59:43.056Z,1006.01
2023-03-29T02:00:43.055Z,1005.95
2023-03-29T02:01:43.068Z,1005.96
2023-03-29T02:02:43.119Z,1005.94
2023-03-29T02:03:43.108Z,1005.93
2023-03-29T02:04:43.050Z,1005.89
2023-03-29T02:05:43.055Z,1005.89
2023-03-29T02:06:44.746Z,1005.89
2023-03-29T02:07:48.055Z,1005.92
2023-03-29T02:08:50.243Z,1005.91
2023-03-29T02:10:43.077Z,1005.9
2023-03-29T02:11:43.062Z,1005.85
2023-03-29T02:12:43.064Z,1005.83
2023-03-29T02:13:43.113Z,1005.83
2023-03-29T02:14:43.059Z,1005.77
2023-03-29T02:15:43.072Z,1005.76
2023-03-29T02:16:43.054Z,1005.77
2023-03-29T02:17:43.104Z,1005.72
2023-03-29T02:18:43.067Z,1005.71
2023-03-29T02:19:43.155Z,1005.62
2023-03-29T02:20:43.070Z,1005.62
2023-03-29T02:21:43.051Z,1005.57
2023-03-29T02:22:43.049Z,1005.57
2023-03-29T02:23:43.072Z,1005.61
2023-03-29T02:24:43.089Z,1005.6
2023-03-29T02:25:43.051Z,1005.58
2023-03-29T02:26:43.068Z,1005.59
2023-03-29T02:27:44.948Z,1005.59
2023-03-29T02:28:48.146Z,1005.57
2023-03-29T02:29:50.315Z,1005.6
2023-03-29T02:31:43.165Z,1005.58
2023-03-29T02:32:43.093Z,1005.53
2023-03-29T02:33:43.059Z,1005.53
2023-03-29T02:34:43.123Z,1005.51
2023-03-29T02:35:43.098Z,1005.5
2023-03-29T02:36:43.086Z,1005.51
2023-03-29T02:37:43.092Z,1005.57
2023-03-29T02:38:43.055Z,1005.51
2023-03-29T02:39:43.054Z,1005.52
2023-03-29T02:40:43.082Z,1005.55
2023-03-29T02:41:43.049Z,1005.54
2023-03-29T02:42:43.084Z,1005.49
2023-03-29T02:43:43.045Z,1005.46
2023-03-29T02:44:43.058Z,1005.48
2023-03-29T02:45:43.069Z,1005.45
2023-03-29T02:46:43.158Z,1005.46
2023-03-29T02:47:43.099Z,1005.46
2023-03-29T02:48:44.894Z,1005.51
2023-03-29T02:49:48.274Z,1005.49
2023-03-29T02:50:50.434Z,1005.45
2023-03-29T02:52:43.141Z,1005.56
2023-03-29T02:53:43.060Z,1005.53
2023-03-29T02:54:43.107Z,1005.55
2023-03-29T02:55:43.170Z,1005.49
2023-03-29T02:56:43.163Z,1005.53
2023-03-29T02:57:43.048Z,1005.48
2023-03-29T02:58:43.078Z,1005.4
2023-03-29T02:59:43.092Z,1005.39
2023-03-29T03:00:43.120Z,1005.41
2023-03-29T03:01:43.085Z,1005.37
2023-03-29T03:02:43.178Z,1005.36
2023-03-29T03:03:43.238Z,1005.36
2023-03-29T03:04:43.075Z,1005.34
2023-03-29T03:05:43.071Z,1005.28
2023-03-29T03:06:43.062Z,1005.32
2023-03-29T03:07:43.074Z,1005.33
2023-03-29T03:08:43.095Z,1005.28
2023-03-29T03:09:45.182Z,1005.26
2023-03-29T03:10:48.442Z,1005.29
2023-03-29T03:11:50.585Z,1005.24
2023-03-29T03:13:43.061Z,1005.27
2023-03-29T03:14:43.305Z,1005.25
2023-03-29T03:15:43.322Z,1005.24
2023-03-29T03:16:43.174Z,1005.21
2023-03-29T03:17:43.262Z,1005.2
2023-03-29T03:18:43.050Z,1005.19
2023-03-29T03:19:43.082Z,1005.22
2023-03-29T03:20:43.097Z,1005.18
2023-03-29T03:21:43.067Z,1005.12
2023-03-29T03:22:43.059Z,1005.12
2023-03-29T03:23:43.121Z,1005.15
2023-03-29T03:24:43.045Z,1005.09
2023-03-29T03:25:43.273Z,1005.11
2023-03-29T03:26:43.260Z,1005.13
2023-03-29T03:27:43.054Z,1005.12
2023-03-29T03:28:43.065Z,1005.12
2023-03-29T03:29:43.052Z,1005.13
2023-03-29T03:30:45.178Z,1005.15
2023-03-29T03:31:47.975Z,1005.14
2023-03-29T03:32:50.679Z,1005.09
2023-03-29T03:34:43.042Z,1005.06
2023-03-29T03:35:43.086Z,1005.06
2023-03-29T03:36:43.058Z,1005.05
2023-03-29T03:37:43.046Z,1005.04
2023-03-29T03:38:43.231Z,1005.03
2023-03-29T03:39:43.058Z,1004.99
2023-03-29T03:40:43.081Z,1005.05
2023-03-29T03:41:43.138Z,1005.02
2023-03-29T03:42:43.045Z,1005.05
2023-03-29T03:43:43.080Z,1005.05
2023-03-29T03:44:43.121Z,1005.03
2023-03-29T03:45:43.232Z,1005.06
2023-03-29T03:46:43.224Z,1005.05
2023-03-29T03:47:43.290Z,1005.05
2023-03-29T03:48:43.054Z,1005.05
2023-03-29T03:49:43.047Z,1005
2023-03-29T03:50:43.068Z,1005.03
2023-03-29T03:51:45.281Z,1004.99
2023-03-29T03:52:43.301Z,1005.01
2023-03-29T03:53:47.958Z,1005
2023-03-29T03:54:50.717Z,1004.98
2023-03-29T03:56:43.064Z,1005
2023-03-29T03:57:43.050Z,1005.03
2023-03-29T03:58:43.047Z,1005.04
2023-03-29T03:59:43.078Z,1005.01
2023-03-29T04:00:43.038Z,1004.98
2023-03-29T04:01:43.042Z,1004.98
2023-03-29T04:02:43.130Z,1005
2023-03-29T04:03:43.239Z,1005.01
2023-03-29T04:04:43.204Z,1004.99
2023-03-29T04:05:43.324Z,1004.97
2023-03-29T04:06:46.148Z,1004.96
2023-03-29T04:07:43.045Z,1004.95
2023-03-29T04:08:43.042Z,1004.96
2023-03-29T04:09:43.074Z,1004.92
2023-03-29T04:10:43.155Z,1004.94
2023-03-29T04:11:43.058Z,1004.93
2023-03-29T04:12:43.048Z,1004.94
2023-03-29T04:13:45.263Z,1004.96
2023-03-29T04:14:48.211Z,1004.9
2023-03-29T04:15:50.964Z,1004.92
2023-03-29T04:17:43.232Z,1004.97
2023-03-29T04:18:43.079Z,1004.92
2023-03-29T04:19:43.156Z,1004.95
2023-03-29T04:20:43.043Z,1004.92
2023-03-29T04:21:43.107Z,1004.95
2023-03-29T04:22:43.188Z,1004.99
2023-03-29T04:23:43.211Z,1004.98
2023-03-29T04:24:43.157Z,1004.96
2023-03-29T04:25:43.241Z,1004.95
2023-03-29T04:26:43.307Z,1004.95
2023-03-29T04:31:17.027Z,1004.93
2023-03-29T04:32:43.082Z,1004.9
2023-03-29T04:33:43.045Z,1004.89
2023-03-29T04:34:43.044Z,1004.91
2023-03-29T04:35:43.095Z,1004.94
2023-03-29T04:36:43.047Z,1004.96
2023-03-29T04:37:43.063Z,1004.95
2023-03-29T04:38:47.658Z,1004.95
2023-03-29T04:39:43.044Z,1004.91
2023-03-29T04:40:43.612Z,1004.93
2023-03-29T04:41:47.259Z,1004.94
2023-03-29T04:42:49.280Z,1004.91
2023-03-29T04:43:49.988Z,1004.9
2023-03-29T04:44:43.079Z,1004.95
2023-03-29T04:45:43.165Z,1004.97
2023-03-29T04:46:43.132Z,1004.95
2023-03-29T04:47:43.066Z,1004.94
2023-03-29T04:48:43.059Z,1004.91
2023-03-29T04:49:43.067Z,1004.9
2023-03-29T04:50:43.222Z,1004.84
2023-03-29T04:51:43.090Z,1004.88
2023-03-29T04:52:43.063Z,1004.86
2023-03-29T04:53:43.057Z,1004.89
2023-03-29T04:54:43.064Z,1004.86
2023-03-29T04:55:43.068Z,1004.86
2023-03-29T04:56:43.086Z,1004.81
2023-03-29T04:57:43.071Z,1004.82
2023-03-29T04:58:43.066Z,1004.86
2023-03-29T04:59:43.135Z,1004.86
2023-03-29T05:00:43.147Z,1004.87
2023-03-29T05:01:44.002Z,1004.84
2023-03-29T05:02:47.170Z,1004.82
2023-03-29T05:03:50.090Z,1004.78
2023-03-29T05:04:49.312Z,1004.76
2023-03-29T05:05:43.083Z,1004.8
2023-03-29T05:06:43.087Z,1004.77
2023-03-29T05:07:43.284Z,1004.8
2023-03-29T05:08:43.146Z,1004.82
2023-03-29T05:09:43.095Z,1004.8
2023-03-29T05:10:43.051Z,1004.81
2023-03-29T05:11:43.199Z,1004.82
2023-03-29T05:12:43.295Z,1004.8
2023-03-29T05:13:43.172Z,1004.81
2023-03-29T05:14:43.095Z,1004.81
2023-03-29T05:15:44.063Z,1004.85
2023-03-29T05:16:43.310Z,1004.82
2023-03-29T05:17:43.084Z,1004.83
2023-03-29T05:18:43.420Z,1004.83
2023-03-29T05:19:43.066Z,1004.83
2023-03-29T05:20:43.100Z,1004.87
2023-03-29T05:21:46.476Z,1004.88
2023-03-29T05:23:47.181Z,1004.88
2023-03-29T05:24:49.416Z,1004.91
2023-03-29T05:25:49.437Z,1004.89
2023-03-29T05:26:43.456Z,1004.93
2023-03-29T05:27:43.059Z,1004.86
2023-03-29T05:28:43.051Z,1004.91
2023-03-29T05:29:43.054Z,1004.85
2023-03-29T05:30:43.056Z,1004.88
2023-03-29T05:31:43.164Z,1004.8
2023-03-29T05:32:43.136Z,1004.8
2023-03-29T05:33:43.085Z,1004.77
2023-03-29T05:34:43.052Z,1004.79
2023-03-29T05:35:43.062Z,1004.75
2023-03-29T05:36:43.053Z,1004.71
2023-03-29T05:37:43.089Z,1004.74
2023-03-29T05:38:43.050Z,1004.69
2023-03-29T05:39:43.085Z,1004.64
2023-03-29T05:40:43.074Z,1004.68
2023-03-29T05:41:43.348Z,1004.64
2023-03-29T05:42:43.334Z,1004.68
2023-03-29T05:43:43.924Z,1004.69
2023-03-29T05:44:47.255Z,1004.64
2023-03-29T05:45:50.349Z,1004.65
2023-03-29T05:46:49.540Z,1004.7
2023-03-29T05:47:43.133Z,1004.7
2023-03-29T05:48:43.160Z,1004.74
2023-03-29T05:49:43.054Z,1004.76
2023-03-29T05:50:46.431Z,1004.72
2023-03-29T05:51:43.239Z,1004.73
2023-03-29T05:52:43.237Z,1004.7
2023-03-29T05:53:43.268Z,1004.69
2023-03-29T05:54:43.326Z,1004.73
2023-03-29T05:55:43.051Z,1004.74
2023-03-29T05:56:43.391Z,1004.72
2023-03-29T05:57:43.267Z,1004.75
2023-03-29T05:58:43.311Z,1004.7
2023-03-29T05:59:43.388Z,1004.69
2023-03-29T06:00:43.055Z,1004.72
2023-03-29T06:01:43.332Z,1004.72
2023-03-29T06:02:43.442Z,1004.74
2023-03-29T06:03:43.221Z,1004.77
2023-03-29T06:04:43.133Z,1004.77
2023-03-29T06:05:47.219Z,1004.76
2023-03-29T06:06:48.600Z,1004.75
2023-03-29T06:07:47.959Z,1004.78
2023-03-29T06:08:43.089Z,1004.77
2023-03-29T06:09:43.050Z,1004.75
2023-03-29T06:10:43.053Z,1004.77
2023-03-29T06:11:43.061Z,1004.74
2023-03-29T06:12:43.072Z,1004.75
2023-03-29T06:13:43.061Z,1004.82
2023-03-29T06:14:43.067Z,1004.84
2023-03-29T06:15:43.047Z,1004.86
2023-03-29T06:16:46.072Z,1004.79
2023-03-29T06:18:43.067Z,1004.84
2023-03-29T06:19:43.050Z,1004.8
2023-03-29T06:20:43.064Z,1004.79
2023-03-29T06:21:43.067Z,1004.81
2023-03-29T06:22:43.064Z,1004.8
2023-03-29T06:23:43.060Z,1004.78
2023-03-29T06:24:43.116Z,1004.8
2023-03-29T06:25:44.006Z,1004.78
2023-03-29T06:26:47.462Z,1004.78
2023-03-29T06:27:50.694Z,1004.71
2023-03-29T06:28:52.005Z,1004.72
2023-03-29T06:29:43.067Z,1004.73
2023-03-29T06:30:43.083Z,1004.75
2023-03-29T06:31:43.206Z,1004.72
2023-03-29T06:32:43.137Z,1004.75
2023-03-29T06:33:43.214Z,1004.78
2023-03-29T06:34:43.143Z,1004.84
2023-03-29T06:35:43.221Z,1004.86
2023-03-29T06:36:43.359Z,1004.87
2023-03-29T06:37:43.162Z,1004.85
2023-03-29T06:38:43.246Z,1004.86
2023-03-29T06:39:43.238Z,1004.86
2023-03-29T06:40:43.404Z,1004.85
2023-03-29T06:41:43.260Z,1004.85
2023-03-29T06:42:43.277Z,1004.81
2023-03-29T06:43:43.290Z,1004.84
2023-03-29T06:44:43.436Z,1004.92
2023-03-29T06:45:43.431Z,1004.95
2023-03-29T06:46:44.633Z,1004.92
2023-03-29T06:47:47.525Z,1004.86
2023-03-29T06:48:50.498Z,1004.84
2023-03-29T06:49:49.818Z,1004.85
2023-03-29T06:50:43.078Z,1004.82
2023-03-29T06:51:43.070Z,1004.79
2023-03-29T06:52:43.094Z,1004.8
2023-03-29T06:53:43.062Z,1004.84
2023-03-29T06:54:43.076Z,1004.84
2023-03-29T06:55:43.049Z,1004.86
2023-03-29T06:56:43.072Z,1004.85
2023-03-29T06:57:43.196Z,1004.88
2023-03-29T06:58:43.059Z,1004.89
2023-03-29T06:59:43.058Z,1004.93
2023-03-29T07:00:43.062Z,1004.88
2023-03-29T07:01:43.297Z,1004.87
2023-03-29T07:02:43.088Z,1004.87
2023-03-29T07:03:45.373Z,1004.85
2023-03-29T07:04:43.153Z,1004.83
2023-03-29T07:05:43.057Z,1004.95
2023-03-29T07:06:43.059Z,1004.89
2023-03-29T07:07:44.154Z,1004.86
2023-03-29T07:08:47.571Z,1004.84
2023-03-29T07:09:50.567Z,1004.84
2023-03-29T07:10:49.975Z,1004.86
2023-03-29T07:11:43.064Z,1004.86
2023-03-29T07:12:43.094Z,1004.83
2023-03-29T07:13:43.095Z,1004.84
2023-03-29T07:14:45.159Z,1004.88
2023-03-29T07:15:43.059Z,1004.87
2023-03-29T07:16:43.076Z,1004.88
2023-03-29T07:17:43.132Z,1004.89
2023-03-29T07:18:43.115Z,1004.9
2023-03-29T07:19:43.065Z,1004.89
2023-03-29T07:20:43.062Z,1004.93
2023-03-29T07:21:43.067Z,1004.94
2023-03-29T07:22:43.201Z,1004.94
2023-03-29T07:23:43.077Z,1004.9
2023-03-29T07:24:43.064Z,1004.88
2023-03-29T07:25:43.080Z,1004.86
2023-03-29T07:27:03.026Z,1004.83
2023-03-29T07:28:44.310Z,1004.8
2023-03-29T07:29:47.741Z,1004.74
2023-03-29T07:30:50.704Z,1004.72
2023-03-29T07:32:50.188Z,1004.77
2023-03-29T07:33:43.135Z,1004.76
2023-03-29T07:34:43.076Z,1004.77
2023-03-29T07:35:43.066Z,1004.77
2023-03-29T07:36:43.061Z,1004.73
2023-03-29T07:37:43.075Z,1004.76
2023-03-29T07:38:43.064Z,1004.78
2023-03-29T07:39:43.089Z,1004.79
2023-03-29T07:40:43.061Z,1004.8
2023-03-29T07:41:43.085Z,1004.79
2023-03-29T07:42:43.053Z,1004.78
2023-03-29T07:43:43.054Z,1004.81
2023-03-29T07:44:43.085Z,1004.78
2023-03-29T07:45:43.076Z,1004.75
2023-03-29T07:46:43.070Z,1004.73
2023-03-29T07:47:43.084Z,1004.72
2023-03-29T07:48:43.045Z,1004.7
2023-03-29T07:49:43.078Z,1004.69
2023-03-29T07:50:44.712Z,1004.69
2023-03-29T07:51:47.851Z,1004.69
2023-03-29T07:52:49.310Z,1004.69
2023-03-29T07:54:43.046Z,1004.67
2023-03-29T07:55:44.027Z,1004.68
2023-03-29T07:56:43.077Z,1004.77
2023-03-29T07:57:43.092Z,1004.74
2023-03-29T07:58:43.071Z,1004.7
2023-03-29T07:59:43.064Z,1004.73
2023-03-29T08:00:43.082Z,1004.72
2023-03-29T08:01:43.050Z,1004.7
2023-03-29T08:02:43.101Z,1004.67
2023-03-29T08:03:43.082Z,1004.68
2023-03-29T08:04:43.069Z,1004.69
2023-03-29T08:05:46.054Z,1004.66
2023-03-29T08:07:43.093Z,1004.74
2023-03-29T08:08:43.067Z,1004.73
2023-03-29T08:09:43.055Z,1004.71
2023-03-29T08:10:43.048Z,1004.71
2023-03-29T08:11:44.550Z,1004.69
2023-03-29T08:12:48.275Z,1004.69
2023-03-29T08:13:50.266Z,1004.78
2023-03-29T08:15:43.054Z,1004.75
2023-03-29T08:16:43.098Z,1004.77
2023-03-29T08:17:43.140Z,1004.79
2023-03-29T08:18:43.069Z,1004.79
2023-03-29T08:19:50.746Z,1004.81
2023-03-29T08:21:43.063Z,1004.78
2023-03-29T08:22:43.084Z,1004.77
2023-03-29T08:23:43.056Z,1004.74
2023-03-29T08:24:43.066Z,1004.77
2023-03-29T08:25:43.098Z,1004.75
2023-03-29T08:26:43.050Z,1004.73
2023-03-29T08:27:43.079Z,1004.74
2023-03-29T08:28:43.059Z,1004.71
2023-03-29T08:29:43.061Z,1004.72
2023-03-29T08:30:43.093Z,1004.71
2023-03-29T08:31:43.081Z,1004.71
2023-03-29T08:32:45.792Z,1004.7
2023-03-29T08:33:47.687Z,1004.68
2023-03-29T08:34:50.281Z,1004.67
2023-03-29T08:36:43.067Z,1004.66
2023-03-29T08:37:43.089Z,1004.59
2023-03-29T08:38:43.062Z,1004.55
2023-03-29T08:39:43.078Z,1004.58
2023-03-29T08:40:43.072Z,1004.54
2023-03-29T08:41:43.058Z,1004.5
2023-03-29T08:42:43.100Z,1004.54
2023-03-29T08:43:43.064Z,1004.51
2023-03-29T08:44:43.075Z,1004.5
2023-03-29T08:45:43.052Z,1004.52
2023-03-29T08:46:43.109Z,1004.51
2023-03-29T08:47:43.092Z,1004.55
2023-03-29T08:48:43.061Z,1004.56
2023-03-29T08:49:43.088Z,1004.54
2023-03-29T08:50:43.063Z,1004.55
2023-03-29T08:51:43.059Z,1004.55
2023-03-29T08:52:43.050Z,1004.61
2023-03-29T08:53:44.731Z,1004.59
2023-03-29T08:54:48.225Z,1004.64
2023-03-29T08:55:50.358Z,1004.61
2023-03-29T08:57:43.084Z,1004.63
2023-03-29T08:58:43.062Z,1004.59
2023-03-29T08:59:43.086Z,1004.59
2023-03-29T09:00:43.095Z,1004.58
2023-03-29T09:01:43.170Z,1004.63
2023-03-29T09:02:43.110Z,1004.58
2023-03-29T09:03:43.123Z,1004.57
2023-03-29T09:04:43.089Z,1004.59
2023-03-29T09:05:43.052Z,1004.61
2023-03-29T09:06:43.076Z,1004.57
2023-03-29T09:07:43.067Z,1004.52
2023-03-29T09:08:43.092Z,1004.52
2023-03-29T09:09:43.094Z,1004.55
2023-03-29T09:10:43.055Z,1004.56
2023-03-29T09:11:43.060Z,1004.55
2023-03-29T09:12:43.120Z,1004.57
2023-03-29T09:13:43.062Z,1004.58
2023-03-29T09:14:44.820Z,1004.62
2023-03-29T09:15:48.488Z,1004.62
2023-03-29T09:16:50.479Z,1004.66
2023-03-29T09:18:43.142Z,1004.61
2023-03-29T09:19:43.078Z,1004.62
2023-03-29T09:20:43.053Z,1004.61
2023-03-29T09:21:43.047Z,1004.63
2023-03-29T09:22:43.200Z,1004.62
2023-03-29T09:23:43.052Z,1004.62
2023-03-29T09:24:43.083Z,1004.59
2023-03-29T09:25:53.298Z,1004.56
2023-03-29T09:27:43.069Z,1004.62
2023-03-29T09:28:43.136Z,1004.64
2023-03-29T09:29:43.096Z,1004.58
2023-03-29T09:30:43.053Z,1004.61
2023-03-29T09:31:43.122Z,1004.56
2023-03-29T09:32:43.093Z,1004.6
2023-03-29T09:33:43.050Z,1004.59
2023-03-29T09:34:43.074Z,1004.63
2023-03-29T09:35:44.993Z,1004.63
2023-03-29T09:36:48.397Z,1004.62
2023-03-29T09:37:50.607Z,1004.64
2023-03-29T09:39:43.088Z,1004.58
2023-03-29T09:40:43.056Z,1004.55
2023-03-29T09:41:43.052Z,1004.51
2023-03-29T09:42:43.050Z,1004.51
2023-03-29T09:43:43.238Z,1004.45
2023-03-29T09:44:43.103Z,1004.44
2023-03-29T09:45:43.105Z,1004.43
2023-03-29T09:46:43.116Z,1004.42
2023-03-29T09:47:43.070Z,1004.45
2023-03-29T09:48:43.056Z,1004.45
2023-03-29T09:49:43.146Z,1004.45
2023-03-29T09:50:43.056Z,1004.49
2023-03-29T09:51:43.050Z,1004.51
2023-03-29T09:52:43.071Z,1004.51
2023-03-29T09:53:43.074Z,1004.57
2023-03-29T09:54:43.076Z,1004.56
2023-03-29T09:55:43.062Z,1004.57
2023-03-29T09:56:45.017Z,1004.58
2023-03-29T09:57:47.960Z,1004.56
2023-03-29T09:58:50.667Z,1004.57
2023-03-29T10:00:43.060Z,1004.51
2023-03-29T10:01:43.081Z,1004.54
2023-03-29T10:02:43.073Z,1004.54
2023-03-29T10:03:43.078Z,1004.53
2023-03-29T10:04:43.060Z,1004.56
2023-03-29T10:05:43.059Z,1004.56
2023-03-29T10:06:43.059Z,1004.59
2023-03-29T10:07:43.056Z,1004.58
2023-03-29T10:08:43.088Z,1004.6
2023-03-29T10:09:43.068Z,1004.62
2023-03-29T10:10:43.127Z,1004.65
2023-03-29T10:11:43.064Z,1004.69
2023-03-29T10:12:43.056Z,1004.68
2023-03-29T10:13:43.060Z,1004.75
2023-03-29T10:14:43.062Z,1004.78
2023-03-29T10:15:43.058Z,1004.78
2023-03-29T10:16:43.082Z,1004.75
2023-03-29T10:17:45.102Z,1004.78
2023-03-29T10:18:43.662Z,1004.74
2023-03-29T10:19:48.097Z,1004.71
2023-03-29T10:20:50.861Z,1004.71
2023-03-29T10:22:43.077Z,1004.69
2023-03-29T10:23:43.066Z,1004.69
2023-03-29T10:24:43.052Z,1004.72
2023-03-29T10:25:46.093Z,1004.69
2023-03-29T10:27:43.158Z,1004.68
2023-03-29T10:28:43.058Z,1004.7
2023-03-29T10:29:43.056Z,1004.67
2023-03-29T10:30:43.064Z,1004.64
2023-03-29T10:31:43.078Z,1004.63
2023-03-29T10:32:43.107Z,1004.63
2023-03-29T10:33:43.060Z,1004.58
2023-03-29T10:34:43.064Z,1004.61
2023-03-29T10:35:43.100Z,1004.63
2023-03-29T10:36:43.096Z,1004.6
2023-03-29T10:37:43.089Z,1004.55
2023-03-29T10:38:43.056Z,1004.5
2023-03-29T10:39:45.358Z,1004.43
2023-03-29T10:40:48.298Z,1004.45
2023-03-29T10:41:49.291Z,1004.42
2023-03-29T10:43:43.090Z,1004.39
2023-03-29T10:44:43.050Z,1004.38
2023-03-29T10:45:43.067Z,1004.38
2023-03-29T10:46:43.097Z,1004.35
2023-03-29T10:47:43.096Z,1004.37
2023-03-29T10:48:43.075Z,1004.36
2023-03-29T10:49:43.050Z,1004.36
2023-03-29T10:50:43.056Z,1004.34
2023-03-29T10:51:43.048Z,1004.37
2023-03-29T10:52:43.060Z,1004.36
2023-03-29T10:53:43.079Z,1004.35
2023-03-29T10:54:43.058Z,1004.33
2023-03-29T10:55:43.062Z,1004.33
2023-03-29T10:56:43.114Z,1004.33
2023-03-29T10:57:43.066Z,1004.3
2023-03-29T10:58:43.089Z,1004.3
2023-03-29T10:59:43.083Z,1004.25
2023-03-29T11:00:45.071Z,1004.25
2023-03-29T11:01:48.357Z,1004.26
2023-03-29T11:02:48.899Z,1004.23
2023-03-29T11:04:43.075Z,1004.28
2023-03-29T11:05:43.062Z,1004.24
2023-03-29T11:06:43.053Z,1004.25
2023-03-29T11:07:43.062Z,1004.22
2023-03-29T11:08:43.194Z,1004.23
2023-03-29T11:09:43.082Z,1004.22
2023-03-29T11:10:43.058Z,1004.21
2023-03-29T11:11:43.054Z,1004.23
2023-03-29T11:12:43.050Z,1004.24
2023-03-29T11:13:43.051Z,1004.2
2023-03-29T11:14:43.071Z,1004.22
2023-03-29T11:15:43.139Z,1004.24
2023-03-29T11:16:43.053Z,1004.2
2023-03-29T11:17:43.101Z,1004.19
2023-03-29T11:18:43.050Z,1004.21
2023-03-29T11:19:43.057Z,1004.21
2023-03-29T11:20:43.204Z,1004.2
2023-03-29T11:21:45.481Z,1004.17
2023-03-29T11:22:48.406Z,1004.16
2023-03-29T11:23:50.174Z,1004.17
2023-03-29T11:25:43.084Z,1004.1
2023-03-29T11:26:43.240Z,1004.12
2023-03-29T11:27:43.076Z,1004.13
2023-03-29T11:28:43.055Z,1004.19
2023-03-29T11:29:43.109Z,1004.18
2023-03-29T11:30:43.086Z,1004.11
2023-03-29T11:31:43.085Z,1004.07
2023-03-29T11:32:43.062Z,1004.07
2023-03-29T11:33:43.050Z,1004.12
2023-03-29T11:34:43.056Z,1004.1
2023-03-29T11:35:43.082Z,1004.08
2023-03-29T11:36:43.058Z,1004.03
2023-03-29T11:37:43.051Z,1004.02
2023-03-29T11:38:46.054Z,1004.07
2023-03-29T11:40:43.061Z,1004.07
2023-03-29T11:41:43.058Z,1004.09
2023-03-29T11:42:45.778Z,1004.02
2023-03-29T11:43:48.852Z,1004.05
2023-03-29T11:44:51.666Z,1004.04
2023-03-29T11:46:43.071Z,1004.04
2023-03-29T11:47:43.081Z,1004.01
2023-03-29T11:48:43.064Z,1004.03
2023-03-29T11:49:43.081Z,1003.99
2023-03-29T11:50:43.052Z,1003.99
2023-03-29T11:51:43.051Z,1003.96
2023-03-29T11:52:43.059Z,1003.94
2023-03-29T11:53:43.052Z,1003.95
2023-03-29T11:54:43.067Z,1003.95
2023-03-29T11:55:43.053Z,1003.94
2023-03-29T11:56:43.081Z,1003.93
2023-03-29T11:57:43.359Z,1003.95
2023-03-29T11:58:43.060Z,1003.94
2023-03-29T11:59:43.089Z,1003.91
2023-03-29T12:00:43.059Z,1003.95
2023-03-29T12:01:43.081Z,1003.92
2023-03-29T12:02:43.481Z,1003.91
2023-03-29T12:03:49.605Z,1003.88
2023-03-29T12:04:48.662Z,1003.91
2023-03-29T12:05:50.419Z,1003.94
2023-03-29T12:07:43.148Z,1003.99
2023-03-29T12:08:43.068Z,1003.91
2023-03-29T12:09:43.079Z,1003.87
2023-03-29T12:10:43.141Z,1003.9
2023-03-29T12:11:43.052Z,1003.87
2023-03-29T12:12:43.585Z,1003.86
2023-03-29T12:13:43.238Z,1003.92
2023-03-29T12:14:43.415Z,1003.85
2023-03-29T12:15:43.063Z,1003.88
2023-03-29T12:16:43.084Z,1003.85
2023-03-29T12:17:43.062Z,1003.82
2023-03-29T12:18:43.314Z,1003.82
2023-03-29T12:19:46.049Z,1003.81
2023-03-29T12:21:43.050Z,1003.75
2023-03-29T12:22:43.056Z,1003.74
2023-03-29T12:23:43.455Z,1003.72
2023-03-29T12:24:45.658Z,1003.74
2023-03-29T12:25:48.704Z,1003.7
2023-03-29T12:26:50.617Z,1003.7
2023-03-29T12:28:43.157Z,1003.67
2023-03-29T12:29:43.050Z,1003.66
2023-03-29T12:30:43.132Z,1003.63
2023-03-29T12:31:43.153Z,1003.59
2023-03-29T12:32:43.095Z,1003.5
2023-03-29T12:33:43.306Z,1003.48
2023-03-29T12:34:43.080Z,1003.46
2023-03-29T12:35:43.203Z,1003.42
2023-03-29T12:36:43.047Z,1003.38
2023-03-29T12:37:43.062Z,1003.39
2023-03-29T12:38:43.064Z,1003.37
2023-03-29T12:39:43.070Z,1003.34
2023-03-29T12:40:43.066Z,1003.29
2023-03-29T12:41:43.048Z,1003.32
2023-03-29T12:42:43.060Z,1003.3
2023-03-29T12:43:43.060Z,1003.25
2023-03-29T12:44:43.062Z,1003.26
2023-03-29T12:45:45.844Z,1003.25